Terminal Aerodrome Forecast
Issued by NWS

Home | Current Version | Previous Version | Text Only | Print | Product List | Glossary On
Versions: 1 2 3 4 5 6 7 8 9 10 11 12 13 14 15 16 17 18 19 20 21 22 23 24 25 26 27 28 29 30 31 32 33 34
000
FTUS45 KGJT 041120
TAFTEX
TAF
KTEX 041120Z 0412/0512 13005KT P6SM SKC
     FM041600 24004KT P6SM FEW250
     FM042100 29008KT P6SM SCT200
     FM050100 26004KT P6SM FEW250
     FM050300 17004KT P6SM FEW250
     FM050800 16012KT P6SM FEW250=

USA.gov is the U.S. government's official web portal to all federal, state and local government web resources and services.